PUA010 SAZM-SUMU
Flight info
| Callsign | PUA010 |
|---|---|
| Flight time | 1h 24m |
| Altitude | 7000 |
| Route | PULPA1G PULPA DCT KIGAR DCT NEKEL DCT PAGAS |
| Aircraft | DA62/L-SDFGRY/C |
Departure
| Time | 2026-05-09 04:56 |
|---|---|
| Airport | Ástor Piazzola International Airport (SAZM) |
Arrival
| Time | 2026-05-09 06:20 |
|---|---|
| Airport | Carrasco General Cesáreo L. Berisso International Airport (SUMU) |
| Time | Latitude | Longitude | Altitude | Speed | Heading |
|---|---|---|---|---|---|
| 2026-05-09 04:01 | -37.93418 | -57.58071 | 72 ft | 0 kts | 296° |
| 2026-05-09 04:37 | -37.93393 | -57.58073 | 69 ft | 8 kts | 31° |
| 2026-05-09 04:37 | -37.93369 | -57.58037 | 72 ft | 0 kts | 70° |
| 2026-05-09 04:45 | -37.93367 | -57.58024 | 72 ft | 5 kts | 84° |
| 2026-05-09 04:46 | -37.93384 | -57.57950 | 64 ft | 12 kts | 120° |
| 2026-05-09 04:46 | -37.93440 | -57.57831 | 70 ft | 19 kts | 121° |
| 2026-05-09 04:46 | -37.93513 | -57.57668 | 70 ft | 24 kts | 120° |
| 2026-05-09 04:46 | -37.93604 | -57.57468 | 68 ft | 28 kts | 120° |
| 2026-05-09 04:47 | -37.93706 | -57.57240 | 67 ft | 31 kts | 119° |
| 2026-05-09 04:47 | -37.93800 | -57.57027 | 68 ft | 25 kts | 120° |
| 2026-05-09 04:47 | -37.93880 | -57.56848 | 66 ft | 22 kts | 119° |
| 2026-05-09 04:47 | -37.93948 | -57.56689 | 63 ft | 19 kts | 122° |
| 2026-05-09 04:48 | -37.94011 | -57.56545 | 66 ft | 19 kts | 120° |
| 2026-05-09 04:48 | -37.94017 | -57.56412 | 62 ft | 10 kts | 52° |
| 2026-05-09 04:48 | -37.94009 | -57.56396 | 62 ft | 2 kts | 68° |
| 2026-05-09 04:48 | -37.94006 | -57.56382 | 63 ft | 0 kts | 66° |
| 2026-05-09 04:51 | -37.94002 | -57.56376 | 60 ft | 1 kts | 54° |
| 2026-05-09 04:51 | -37.93987 | -57.56354 | 62 ft | 6 kts | 54° |
| 2026-05-09 04:52 | -37.93953 | -57.56315 | 62 ft | 8 kts | 47° |
| 2026-05-09 04:52 | -37.93950 | -57.56322 | 59 ft | 3 kts | 132° |
| 2026-05-09 04:52 | -37.93953 | -57.56305 | 63 ft | 2 kts | 63° |
| 2026-05-09 04:52 | -37.93944 | -57.56301 | 58 ft | 1 kts | 341° |
| 2026-05-09 04:53 | -37.93943 | -57.56302 | 58 ft | 0 kts | 328° |
| 2026-05-09 04:53 | -37.93940 | -57.56306 | 59 ft | 0 kts | 314° |
| 2026-05-09 04:54 | -37.93931 | -57.56318 | 64 ft | 9 kts | 306° |
| 2026-05-09 04:55 | -37.93837 | -57.56499 | 66 ft | 42 kts | 303° |
| 2026-05-09 04:55 | -37.93599 | -57.56993 | 64 ft | 92 kts | 303° |
| 2026-05-09 04:55 | -37.93193 | -57.57728 | 373 ft | 106 kts | 298° |
| 2026-05-09 04:55 | -37.92900 | -57.58642 | 582 ft | 124 kts | 279° |
| 2026-05-09 04:56 | -37.92755 | -57.59675 | 1118 ft | 116 kts | 274° |
| 2026-05-09 04:56 | -37.92395 | -57.60534 | 1604 ft | 121 kts | 321° |
| 2026-05-09 04:56 | -37.91552 | -57.60838 | 1979 ft | 131 kts | 349° |
| 2026-05-09 04:56 | -37.90628 | -57.60837 | 2351 ft | 133 kts | 342° |
| 2026-05-09 04:57 | -37.89918 | -57.61584 | 2392 ft | 143 kts | 285° |
| 2026-05-09 04:57 | -37.89684 | -57.62835 | 2472 ft | 152 kts | 287° |
| 2026-05-09 04:57 | -37.89109 | -57.63994 | 2667 ft | 157 kts | 298° |
| 2026-05-09 04:57 | -37.88428 | -57.65077 | 2911 ft | 156 kts | 306° |
| 2026-05-09 04:58 | -37.87682 | -57.66024 | 3208 ft | 153 kts | 310° |
| 2026-05-09 04:58 | -37.86893 | -57.66911 | 3515 ft | 151 kts | 314° |
| 2026-05-09 04:58 | -37.86066 | -57.67731 | 3823 ft | 151 kts | 317° |
| 2026-05-09 04:58 | -37.85204 | -57.68492 | 4132 ft | 151 kts | 321° |
| 2026-05-09 04:59 | -37.84310 | -57.69200 | 4440 ft | 152 kts | 324° |
| 2026-05-09 04:59 | -37.83387 | -57.69856 | 4739 ft | 153 kts | 327° |
| 2026-05-09 04:59 | -37.82435 | -57.70461 | 5045 ft | 154 kts | 330° |
| 2026-05-09 04:59 | -37.81456 | -57.71012 | 5351 ft | 154 kts | 333° |
| 2026-05-09 05:00 | -37.80453 | -57.71507 | 5662 ft | 155 kts | 336° |
| 2026-05-09 05:00 | -37.79429 | -57.71946 | 5973 ft | 156 kts | 339° |
| 2026-05-09 05:00 | -37.78385 | -57.72325 | 6266 ft | 157 kts | 341° |
| 2026-05-09 05:00 | -37.77337 | -57.72642 | 6548 ft | 158 kts | 344° |
| 2026-05-09 05:01 | -37.76205 | -57.72917 | 6594 ft | 174 kts | 347° |
| 2026-05-09 05:01 | -37.74967 | -57.73134 | 6596 ft | 184 kts | 351° |
| 2026-05-09 05:01 | -37.73682 | -57.73268 | 6597 ft | 184 kts | 354° |
| 2026-05-09 05:01 | -37.72428 | -57.73311 | 6596 ft | 178 kts | 357° |
| 2026-05-09 05:02 | -37.71203 | -57.73274 | 6600 ft | 175 kts | 0° |
| 2026-05-09 05:02 | -37.69995 | -57.73185 | 6600 ft | 173 kts | 0° |
| 2026-05-09 05:02 | -37.68795 | -57.73111 | 6603 ft | 172 kts | 360° |
| 2026-05-09 05:02 | -37.67616 | -57.73037 | 6601 ft | 172 kts | 0° |
| 2026-05-09 05:03 | -37.66423 | -57.72956 | 6608 ft | 172 kts | 0° |
| 2026-05-09 05:03 | -37.65230 | -57.72877 | 6610 ft | 171 kts | 0° |
| 2026-05-09 05:03 | -37.64040 | -57.72798 | 6605 ft | 171 kts | 360° |
| 2026-05-09 05:03 | -37.62851 | -57.72719 | 6617 ft | 171 kts | 359° |
| 2026-05-09 05:04 | -37.61662 | -57.72640 | 6614 ft | 171 kts | 360° |
| 2026-05-09 05:04 | -37.60473 | -57.72563 | 6616 ft | 171 kts | 360° |
| 2026-05-09 05:04 | -37.59284 | -57.72482 | 6616 ft | 171 kts | 0° |
| 2026-05-09 05:04 | -37.58115 | -57.72406 | 6624 ft | 171 kts | 360° |
| 2026-05-09 05:05 | -37.56927 | -57.72325 | 6626 ft | 171 kts | 360° |
| 2026-05-09 05:05 | -37.55740 | -57.72247 | 6629 ft | 171 kts | 359° |
| 2026-05-09 05:05 | -37.54550 | -57.72169 | 6632 ft | 171 kts | 360° |
| 2026-05-09 05:05 | -37.53361 | -57.72092 | 6632 ft | 171 kts | 360° |
| 2026-05-09 05:06 | -37.52174 | -57.72013 | 6630 ft | 171 kts | 360° |
| 2026-05-09 05:06 | -37.50989 | -57.71932 | 6631 ft | 171 kts | 360° |
| 2026-05-09 05:06 | -37.49803 | -57.71855 | 6633 ft | 171 kts | 360° |
| 2026-05-09 05:06 | -37.48614 | -57.71776 | 6635 ft | 171 kts | 360° |
| 2026-05-09 05:07 | -37.47421 | -57.71698 | 6638 ft | 172 kts | 360° |
| 2026-05-09 05:07 | -37.46240 | -57.71619 | 6635 ft | 172 kts | 360° |
| 2026-05-09 05:07 | -37.45041 | -57.71540 | 6635 ft | 172 kts | 360° |
| 2026-05-09 05:07 | -37.43845 | -57.71461 | 6639 ft | 172 kts | 360° |
| 2026-05-09 05:08 | -37.42650 | -57.71382 | 6636 ft | 172 kts | 360° |
| 2026-05-09 05:08 | -37.41457 | -57.71304 | 6642 ft | 172 kts | 360° |
| 2026-05-09 05:08 | -37.40262 | -57.71224 | 6639 ft | 172 kts | 360° |
| 2026-05-09 05:08 | -37.39069 | -57.71145 | 6640 ft | 172 kts | 360° |
| 2026-05-09 05:09 | -37.37877 | -57.71010 | 6638 ft | 174 kts | 12° |
| 2026-05-09 05:09 | -37.36803 | -57.70314 | 6643 ft | 175 kts | 37° |
| 2026-05-09 05:09 | -37.35938 | -57.69261 | 6644 ft | 176 kts | 45° |
| 2026-05-09 05:09 | -37.35054 | -57.68201 | 6644 ft | 176 kts | 43° |
| 2026-05-09 05:10 | -37.34158 | -57.67152 | 6641 ft | 176 kts | 44° |
| 2026-05-09 05:10 | -37.33275 | -57.66090 | 6645 ft | 176 kts | 44° |
| 2026-05-09 05:10 | -37.32392 | -57.65025 | 6642 ft | 176 kts | 44° |
| 2026-05-09 05:10 | -37.31505 | -57.63963 | 6644 ft | 176 kts | 44° |
| 2026-05-09 05:11 | -37.30618 | -57.62896 | 6645 ft | 177 kts | 44° |
| 2026-05-09 05:11 | -37.29731 | -57.61828 | 6639 ft | 177 kts | 44° |
| 2026-05-09 05:11 | -37.28853 | -57.60779 | 6644 ft | 177 kts | 44° |
| 2026-05-09 05:11 | -37.27966 | -57.59711 | 6643 ft | 177 kts | 44° |
| 2026-05-09 05:12 | -37.27077 | -57.58646 | 6639 ft | 177 kts | 44° |
| 2026-05-09 05:12 | -37.26188 | -57.57581 | 6640 ft | 177 kts | 44° |
| 2026-05-09 05:12 | -37.25300 | -57.56515 | 6644 ft | 177 kts | 44° |
| 2026-05-09 05:12 | -37.24410 | -57.55451 | 6641 ft | 177 kts | 44° |
| 2026-05-09 05:13 | -37.23518 | -57.54382 | 6646 ft | 177 kts | 44° |
| 2026-05-09 05:13 | -37.22691 | -57.53372 | 6629 ft | 178 kts | 44° |
| 2026-05-09 05:13 | -37.21795 | -57.52307 | 6635 ft | 177 kts | 43° |
| 2026-05-09 05:13 | -37.20910 | -57.51266 | 6636 ft | 177 kts | 44° |
| 2026-05-09 05:14 | -37.20020 | -57.50201 | 6636 ft | 177 kts | 44° |
| 2026-05-09 05:14 | -37.19129 | -57.49132 | 6637 ft | 177 kts | 44° |
| 2026-05-09 05:14 | -37.18237 | -57.48065 | 6637 ft | 177 kts | 44° |
| 2026-05-09 05:14 | -37.17344 | -57.46999 | 6642 ft | 177 kts | 44° |
| 2026-05-09 05:15 | -37.16451 | -57.45932 | 6642 ft | 177 kts | 44° |
| 2026-05-09 05:15 | -37.15557 | -57.44864 | 6643 ft | 177 kts | 44° |
| 2026-05-09 05:15 | -37.14663 | -57.43796 | 6641 ft | 178 kts | 44° |
| 2026-05-09 05:15 | -37.13781 | -57.42745 | 6644 ft | 177 kts | 44° |
| 2026-05-09 05:16 | -37.12888 | -57.41679 | 6641 ft | 177 kts | 44° |
| 2026-05-09 05:16 | -37.11994 | -57.40611 | 6642 ft | 178 kts | 44° |
| 2026-05-09 05:16 | -37.11098 | -57.39544 | 6642 ft | 178 kts | 44° |
| 2026-05-09 05:16 | -37.10204 | -57.38479 | 6645 ft | 177 kts | 44° |
| 2026-05-09 05:17 | -37.09308 | -57.37411 | 6646 ft | 178 kts | 44° |
| 2026-05-09 05:17 | -37.08412 | -57.36343 | 6646 ft | 178 kts | 44° |
| 2026-05-09 05:17 | -37.07514 | -57.35276 | 6643 ft | 178 kts | 44° |
| 2026-05-09 05:17 | -37.06617 | -57.34207 | 6645 ft | 178 kts | 44° |
| 2026-05-09 05:18 | -37.05732 | -57.33154 | 6646 ft | 178 kts | 44° |
| 2026-05-09 05:18 | -37.04836 | -57.32089 | 6647 ft | 178 kts | 44° |
| 2026-05-09 05:18 | -37.03939 | -57.31022 | 6647 ft | 178 kts | 44° |
| 2026-05-09 05:18 | -37.03022 | -57.29933 | 6652 ft | 187 kts | 44° |
| 2026-05-09 05:19 | -37.02060 | -57.28786 | 6660 ft | 194 kts | 44° |
| 2026-05-09 05:19 | -37.01071 | -57.27612 | 6665 ft | 198 kts | 44° |
| 2026-05-09 05:19 | -37.00069 | -57.26424 | 6668 ft | 199 kts | 44° |
| 2026-05-09 05:19 | -36.99060 | -57.25228 | 6669 ft | 200 kts | 44° |
| 2026-05-09 05:20 | -36.98050 | -57.24031 | 6666 ft | 200 kts | 44° |
| 2026-05-09 05:20 | -36.97038 | -57.22831 | 6669 ft | 201 kts | 44° |
| 2026-05-09 05:20 | -36.96038 | -57.21643 | 6668 ft | 201 kts | 44° |
| 2026-05-09 05:20 | -36.95022 | -57.20441 | 6668 ft | 201 kts | 43° |
| 2026-05-09 05:21 | -36.94006 | -57.19240 | 6673 ft | 201 kts | 44° |
| 2026-05-09 05:21 | -36.92991 | -57.18036 | 6667 ft | 201 kts | 43° |
| 2026-05-09 05:21 | -36.91976 | -57.16834 | 6669 ft | 201 kts | 43° |
| 2026-05-09 05:21 | -36.90960 | -57.15635 | 6669 ft | 201 kts | 43° |
| 2026-05-09 05:22 | -36.89944 | -57.14432 | 6670 ft | 201 kts | 43° |
| 2026-05-09 05:22 | -36.88930 | -57.13233 | 6671 ft | 201 kts | 43° |
| 2026-05-09 05:22 | -36.87929 | -57.12051 | 6666 ft | 201 kts | 43° |
| 2026-05-09 05:22 | -36.86914 | -57.10851 | 6666 ft | 201 kts | 43° |
| 2026-05-09 05:23 | -36.85899 | -57.09651 | 6674 ft | 201 kts | 43° |
| 2026-05-09 05:23 | -36.84881 | -57.08453 | 6671 ft | 201 kts | 43° |
| 2026-05-09 05:23 | -36.83865 | -57.07254 | 6670 ft | 201 kts | 43° |
| 2026-05-09 05:23 | -36.82848 | -57.06054 | 6669 ft | 201 kts | 43° |
| 2026-05-09 05:24 | -36.81830 | -57.04854 | 6671 ft | 201 kts | 43° |
| 2026-05-09 05:24 | -36.80813 | -57.03656 | 6672 ft | 201 kts | 43° |
| 2026-05-09 05:24 | -36.79794 | -57.02456 | 6673 ft | 202 kts | 43° |
| 2026-05-09 05:24 | -36.78789 | -57.01270 | 6671 ft | 201 kts | 43° |
| 2026-05-09 05:25 | -36.77771 | -57.00073 | 6671 ft | 201 kts | 43° |
| 2026-05-09 05:25 | -36.76752 | -56.98876 | 6674 ft | 201 kts | 43° |
| 2026-05-09 05:25 | -36.74715 | -56.96478 | 6675 ft | 201 kts | 42° |
| 2026-05-09 05:26 | -36.73557 | -56.95542 | 6671 ft | 198 kts | 19° |
| 2026-05-09 05:26 | -36.72701 | -56.95146 | 6671 ft | 198 kts | 18° |
| 2026-05-09 05:26 | -36.71426 | -56.94485 | 6675 ft | 199 kts | 21° |
| 2026-05-09 05:26 | -36.69738 | -56.93607 | 6675 ft | 199 kts | 19° |
| 2026-05-09 05:27 | -36.68453 | -56.92973 | 6673 ft | 199 kts | 19° |
| 2026-05-09 05:27 | -36.67167 | -56.92337 | 6677 ft | 199 kts | 19° |
| 2026-05-09 05:27 | -36.65884 | -56.91694 | 6675 ft | 199 kts | 19° |
| 2026-05-09 05:27 | -36.64601 | -56.91051 | 6673 ft | 199 kts | 19° |
| 2026-05-09 05:28 | -36.63318 | -56.90412 | 6677 ft | 199 kts | 19° |
| 2026-05-09 05:28 | -36.62468 | -56.89988 | 6680 ft | 198 kts | 19° |
| 2026-05-09 05:28 | -36.61187 | -56.89348 | 6681 ft | 198 kts | 19° |
| 2026-05-09 05:28 | -36.59488 | -56.88500 | 6682 ft | 199 kts | 19° |
| 2026-05-09 05:29 | -36.58203 | -56.87862 | 6680 ft | 199 kts | 19° |
| 2026-05-09 05:29 | -36.56917 | -56.87221 | 6681 ft | 199 kts | 19° |
| 2026-05-09 05:29 | -36.55632 | -56.86579 | 6683 ft | 199 kts | 18° |
| 2026-05-09 05:29 | -36.54348 | -56.85939 | 6688 ft | 199 kts | 18° |
| 2026-05-09 05:30 | -36.53496 | -56.85516 | 6686 ft | 199 kts | 18° |
| 2026-05-09 05:30 | -36.52211 | -56.84878 | 6686 ft | 199 kts | 18° |
| 2026-05-09 05:30 | -36.50927 | -56.84238 | 6686 ft | 199 kts | 18° |
| 2026-05-09 05:30 | -36.49822 | -56.83687 | 6689 ft | 199 kts | 18° |
| 2026-05-09 05:31 | -36.48537 | -56.83049 | 6687 ft | 199 kts | 18° |
| 2026-05-09 05:31 | -36.47668 | -56.82618 | 6690 ft | 199 kts | 18° |
| 2026-05-09 05:31 | -36.46401 | -56.81990 | 6694 ft | 199 kts | 18° |
| 2026-05-09 05:31 | -36.45117 | -56.81350 | 6689 ft | 199 kts | 18° |
| 2026-05-09 05:32 | -36.43833 | -56.80712 | 6693 ft | 199 kts | 18° |
| 2026-05-09 05:32 | -36.42547 | -56.80076 | 6694 ft | 199 kts | 18° |
| 2026-05-09 05:32 | -36.41262 | -56.79438 | 6693 ft | 199 kts | 18° |
| 2026-05-09 05:32 | -36.39977 | -56.78800 | 6696 ft | 199 kts | 17° |
| 2026-05-09 05:33 | -36.38689 | -56.78162 | 6696 ft | 199 kts | 17° |
| 2026-05-09 05:33 | -36.37402 | -56.77524 | 6694 ft | 199 kts | 17° |
| 2026-05-09 05:33 | -36.36116 | -56.76888 | 6694 ft | 199 kts | 17° |
| 2026-05-09 05:33 | -36.34849 | -56.76259 | 6702 ft | 199 kts | 17° |
| 2026-05-09 05:34 | -36.33564 | -56.75622 | 6701 ft | 199 kts | 17° |
| 2026-05-09 05:34 | -36.32276 | -56.74986 | 6704 ft | 200 kts | 17° |
| 2026-05-09 05:34 | -36.30985 | -56.74348 | 6701 ft | 200 kts | 17° |
| 2026-05-09 05:34 | -36.29693 | -56.73708 | 6697 ft | 200 kts | 17° |
| 2026-05-09 05:35 | -36.28401 | -56.73070 | 6697 ft | 200 kts | 17° |
| 2026-05-09 05:35 | -36.27110 | -56.72432 | 6706 ft | 200 kts | 16° |
| 2026-05-09 05:35 | -36.25819 | -56.71795 | 6707 ft | 200 kts | 17° |
| 2026-05-09 05:35 | -36.24529 | -56.71157 | 6708 ft | 200 kts | 16° |
| 2026-05-09 05:36 | -36.23255 | -56.70526 | 6710 ft | 200 kts | 16° |
| 2026-05-09 05:36 | -36.21963 | -56.69893 | 6702 ft | 200 kts | 16° |
| 2026-05-09 05:36 | -36.20671 | -56.69254 | 6710 ft | 200 kts | 16° |
| 2026-05-09 05:36 | -36.19381 | -56.68615 | 6707 ft | 200 kts | 15° |
| 2026-05-09 05:37 | -36.18089 | -56.67979 | 6703 ft | 200 kts | 15° |
| 2026-05-09 05:37 | -36.16797 | -56.67343 | 6708 ft | 200 kts | 15° |
| 2026-05-09 05:37 | -36.15504 | -56.66707 | 6708 ft | 200 kts | 15° |
| 2026-05-09 05:37 | -36.14215 | -56.66072 | 6707 ft | 200 kts | 15° |
| 2026-05-09 05:38 | -36.12920 | -56.65434 | 6713 ft | 200 kts | 15° |
| 2026-05-09 05:38 | -36.11643 | -56.64807 | 6715 ft | 200 kts | 15° |
| 2026-05-09 05:38 | -36.10348 | -56.64170 | 6710 ft | 200 kts | 15° |
| 2026-05-09 05:38 | -36.09054 | -56.63534 | 6717 ft | 200 kts | 15° |
| 2026-05-09 05:39 | -36.07764 | -56.62897 | 6715 ft | 200 kts | 15° |
| 2026-05-09 05:39 | -36.06471 | -56.62264 | 6708 ft | 200 kts | 14° |
| 2026-05-09 05:39 | -36.05180 | -56.61630 | 6719 ft | 200 kts | 15° |
| 2026-05-09 05:39 | -36.03889 | -56.60996 | 6714 ft | 200 kts | 15° |
| 2026-05-09 05:40 | -36.02596 | -56.60361 | 6719 ft | 200 kts | 15° |
| 2026-05-09 05:40 | -36.01320 | -56.59735 | 6708 ft | 200 kts | 15° |
| 2026-05-09 05:40 | -36.00027 | -56.59102 | 6718 ft | 200 kts | 15° |
| 2026-05-09 05:40 | -35.98733 | -56.58465 | 6716 ft | 200 kts | 15° |
| 2026-05-09 05:41 | -35.97642 | -56.57930 | 6716 ft | 200 kts | 14° |
| 2026-05-09 05:41 | -35.96878 | -56.57557 | 6720 ft | 200 kts | 14° |
| 2026-05-09 05:41 | -35.95589 | -56.56925 | 6722 ft | 199 kts | 14° |
| 2026-05-09 05:41 | -35.94633 | -56.56457 | 6726 ft | 199 kts | 14° |
| 2026-05-09 05:42 | -35.93362 | -56.55837 | 6721 ft | 199 kts | 14° |
| 2026-05-09 05:42 | -35.92072 | -56.55205 | 6721 ft | 200 kts | 14° |
| 2026-05-09 05:42 | -35.90782 | -56.54573 | 6727 ft | 200 kts | 14° |
| 2026-05-09 05:42 | -35.90139 | -56.54259 | 6719 ft | 200 kts | 15° |
| 2026-05-09 05:43 | -35.89090 | -56.53746 | 6723 ft | 200 kts | 14° |
| 2026-05-09 05:43 | -35.87982 | -56.53203 | 6725 ft | 200 kts | 14° |
| 2026-05-09 05:43 | -35.86708 | -56.52581 | 6723 ft | 200 kts | 14° |
| 2026-05-09 05:43 | -35.85411 | -56.51947 | 6726 ft | 201 kts | 14° |
| 2026-05-09 05:44 | -35.84114 | -56.51314 | 6725 ft | 200 kts | 15° |
| 2026-05-09 05:44 | -35.82858 | -56.50700 | 6727 ft | 200 kts | 14° |
| 2026-05-09 05:44 | -35.81563 | -56.50068 | 6728 ft | 200 kts | 14° |
| 2026-05-09 05:44 | -35.80268 | -56.49437 | 6729 ft | 200 kts | 14° |
| 2026-05-09 05:45 | -35.78971 | -56.48804 | 6730 ft | 201 kts | 14° |
| 2026-05-09 05:45 | -35.78319 | -56.48487 | 6731 ft | 201 kts | 14° |
| 2026-05-09 05:45 | -35.77461 | -56.48080 | 6736 ft | 200 kts | 13° |
| 2026-05-09 05:45 | -35.76156 | -56.47494 | 6752 ft | 199 kts | 12° |
| 2026-05-09 05:46 | -35.74852 | -56.46915 | 6753 ft | 199 kts | 12° |
| 2026-05-09 05:46 | -35.73942 | -56.46511 | 6747 ft | 199 kts | 12° |
| 2026-05-09 05:48 | -35.73493 | -56.46313 | 6746 ft | 199 kts | 12° |
| 2026-05-09 05:49 | -35.72778 | -56.45998 | 6746 ft | 199 kts | 12° |
| 2026-05-09 05:49 | -35.72313 | -56.45792 | 6739 ft | 199 kts | 12° |
| 2026-05-09 05:50 | -35.71007 | -56.45208 | 6736 ft | 200 kts | 12° |
| 2026-05-09 05:50 | -35.69718 | -56.44540 | 6733 ft | 204 kts | 21° |
| 2026-05-09 05:50 | -35.68469 | -56.43713 | 6733 ft | 203 kts | 19° |
| 2026-05-09 05:50 | -35.67336 | -56.43084 | 6738 ft | 201 kts | 14° |
| 2026-05-09 05:51 | -35.66034 | -56.42485 | 6739 ft | 200 kts | 12° |
| 2026-05-09 05:51 | -35.64731 | -56.41885 | 6740 ft | 200 kts | 13° |
| 2026-05-09 05:51 | -35.63432 | -56.41250 | 6740 ft | 201 kts | 14° |
| 2026-05-09 05:51 | -35.62133 | -56.40612 | 6741 ft | 201 kts | 14° |
| 2026-05-09 05:52 | -35.60833 | -56.39981 | 6742 ft | 201 kts | 14° |
| 2026-05-09 05:52 | -35.59534 | -56.39352 | 6742 ft | 200 kts | 14° |
| 2026-05-09 05:52 | -35.58254 | -56.38731 | 6742 ft | 201 kts | 13° |
| 2026-05-09 05:52 | -35.56956 | -56.38101 | 6743 ft | 201 kts | 14° |
| 2026-05-09 05:53 | -35.55655 | -56.37471 | 6742 ft | 201 kts | 13° |
| 2026-05-09 05:53 | -35.54353 | -56.36840 | 6747 ft | 201 kts | 13° |
| 2026-05-09 05:53 | -35.53053 | -56.36211 | 6744 ft | 201 kts | 14° |
| 2026-05-09 05:53 | -35.51751 | -56.35582 | 6748 ft | 201 kts | 13° |
| 2026-05-09 05:54 | -35.50450 | -56.34951 | 6749 ft | 201 kts | 14° |
| 2026-05-09 05:54 | -35.49164 | -56.34328 | 6750 ft | 202 kts | 13° |
| 2026-05-09 05:54 | -35.47861 | -56.33699 | 6748 ft | 201 kts | 13° |
| 2026-05-09 05:54 | -35.46556 | -56.33068 | 6751 ft | 202 kts | 13° |
| 2026-05-09 05:55 | -35.45253 | -56.32438 | 6749 ft | 201 kts | 13° |
| 2026-05-09 05:55 | -35.43951 | -56.31808 | 6753 ft | 201 kts | 13° |
| 2026-05-09 05:55 | -35.42650 | -56.31180 | 6750 ft | 201 kts | 13° |
| 2026-05-09 05:55 | -35.41350 | -56.30552 | 6754 ft | 201 kts | 13° |
| 2026-05-09 05:56 | -35.40049 | -56.29925 | 6755 ft | 201 kts | 13° |
| 2026-05-09 05:56 | -35.38746 | -56.29297 | 6755 ft | 201 kts | 12° |
| 2026-05-09 05:56 | -35.37459 | -56.28676 | 6756 ft | 201 kts | 12° |
| 2026-05-09 05:56 | -35.36152 | -56.28048 | 6759 ft | 202 kts | 12° |
| 2026-05-09 05:57 | -35.34843 | -56.27416 | 6761 ft | 202 kts | 13° |
| 2026-05-09 05:57 | -35.33535 | -56.26784 | 6762 ft | 202 kts | 12° |
| 2026-05-09 05:57 | -35.32226 | -56.26154 | 6763 ft | 202 kts | 12° |
| 2026-05-09 05:57 | -35.30918 | -56.25527 | 6762 ft | 202 kts | 12° |
| 2026-05-09 05:58 | -35.29609 | -56.24896 | 6761 ft | 202 kts | 13° |
| 2026-05-09 05:58 | -35.28302 | -56.24260 | 6764 ft | 202 kts | 13° |
| 2026-05-09 05:58 | -35.27015 | -56.23627 | 6764 ft | 202 kts | 13° |
| 2026-05-09 05:58 | -35.25708 | -56.22992 | 6763 ft | 202 kts | 12° |
| 2026-05-09 05:59 | -35.24402 | -56.22359 | 6762 ft | 202 kts | 13° |
| 2026-05-09 05:59 | -35.23098 | -56.21721 | 6764 ft | 202 kts | 12° |
| 2026-05-09 05:59 | -35.21792 | -56.21086 | 6766 ft | 202 kts | 12° |
| 2026-05-09 05:59 | -35.20488 | -56.20454 | 6766 ft | 201 kts | 12° |
| 2026-05-09 06:00 | -35.19185 | -56.19820 | 6766 ft | 202 kts | 12° |
| 2026-05-09 06:00 | -35.17870 | -56.19539 | 6771 ft | 187 kts | 348° |
| 2026-05-09 06:00 | -35.16594 | -56.19592 | 6773 ft | 187 kts | 348° |
| 2026-05-09 06:00 | -35.15282 | -56.19551 | 6775 ft | 190 kts | 353° |
| 2026-05-09 06:01 | -35.13959 | -56.19437 | 6779 ft | 191 kts | 353° |
| 2026-05-09 06:01 | -35.12635 | -56.19317 | 6779 ft | 191 kts | 353° |
| 2026-05-09 06:01 | -35.11312 | -56.19207 | 6780 ft | 190 kts | 353° |
| 2026-05-09 06:01 | -35.09991 | -56.19098 | 6783 ft | 190 kts | 353° |
| 2026-05-09 06:02 | -35.08672 | -56.18991 | 6779 ft | 190 kts | 353° |
| 2026-05-09 06:02 | -35.07355 | -56.18880 | 6783 ft | 190 kts | 353° |
| 2026-05-09 06:02 | -35.06055 | -56.18771 | 6786 ft | 190 kts | 353° |
| 2026-05-09 06:02 | -35.04739 | -56.18663 | 6787 ft | 190 kts | 353° |
| 2026-05-09 06:03 | -35.03424 | -56.18555 | 6788 ft | 189 kts | 353° |
| 2026-05-09 06:03 | -35.02110 | -56.18445 | 6789 ft | 189 kts | 353° |
| 2026-05-09 06:03 | -35.00797 | -56.18335 | 6788 ft | 189 kts | 353° |
| 2026-05-09 06:03 | -34.99488 | -56.18227 | 6793 ft | 189 kts | 353° |
| 2026-05-09 06:04 | -34.98178 | -56.18119 | 6792 ft | 189 kts | 353° |
| 2026-05-09 06:04 | -34.96869 | -56.18010 | 6795 ft | 189 kts | 353° |
| 2026-05-09 06:04 | -34.95577 | -56.17905 | 6787 ft | 189 kts | 353° |
| 2026-05-09 06:04 | -34.94269 | -56.17796 | 6793 ft | 189 kts | 354° |
| 2026-05-09 06:05 | -34.92959 | -56.17687 | 6793 ft | 189 kts | 354° |
| 2026-05-09 06:05 | -34.91650 | -56.17579 | 6793 ft | 189 kts | 354° |
| 2026-05-09 06:05 | -34.90340 | -56.17471 | 6799 ft | 189 kts | 354° |
| 2026-05-09 06:05 | -34.89030 | -56.17363 | 6800 ft | 189 kts | 354° |
| 2026-05-09 06:06 | -34.87716 | -56.17252 | 6800 ft | 189 kts | 354° |
| 2026-05-09 06:06 | -34.86406 | -56.17144 | 6798 ft | 188 kts | 354° |
| 2026-05-09 06:06 | -34.85098 | -56.17036 | 6797 ft | 188 kts | 354° |
| 2026-05-09 06:06 | -34.83810 | -56.16930 | 6799 ft | 188 kts | 354° |
| 2026-05-09 06:07 | -34.82509 | -56.16822 | 6800 ft | 187 kts | 353° |
| 2026-05-09 06:07 | -34.81208 | -56.16715 | 6798 ft | 187 kts | 353° |
| 2026-05-09 06:07 | -34.79909 | -56.16608 | 6797 ft | 187 kts | 353° |
| 2026-05-09 06:07 | -34.78610 | -56.16502 | 6795 ft | 187 kts | 353° |
| 2026-05-09 06:08 | -34.77312 | -56.16395 | 6795 ft | 187 kts | 353° |
| 2026-05-09 06:08 | -34.76014 | -56.16287 | 6797 ft | 187 kts | 353° |
| 2026-05-09 06:08 | -34.74715 | -56.16180 | 6796 ft | 187 kts | 353° |
| 2026-05-09 06:08 | -34.73415 | -56.16074 | 6796 ft | 187 kts | 353° |
| 2026-05-09 06:09 | -34.72117 | -56.15967 | 6798 ft | 187 kts | 353° |
| 2026-05-09 06:09 | -34.70837 | -56.15861 | 6797 ft | 187 kts | 353° |
| 2026-05-09 06:09 | -34.69538 | -56.15754 | 6800 ft | 187 kts | 353° |
| 2026-05-09 06:09 | -34.68238 | -56.15648 | 6800 ft | 187 kts | 353° |
| 2026-05-09 06:10 | -34.66939 | -56.15540 | 6800 ft | 187 kts | 353° |
| 2026-05-09 06:10 | -34.65639 | -56.15433 | 6803 ft | 187 kts | 353° |
| 2026-05-09 06:10 | -34.64340 | -56.15280 | 6803 ft | 192 kts | 4° |
| 2026-05-09 06:10 | -34.63155 | -56.14398 | 6808 ft | 210 kts | 38° |
| 2026-05-09 06:11 | -34.62196 | -56.13078 | 6809 ft | 212 kts | 43° |
| 2026-05-09 06:11 | -34.61248 | -56.11707 | 6811 ft | 212 kts | 43° |
| 2026-05-09 06:11 | -34.60290 | -56.10339 | 6810 ft | 213 kts | 43° |
| 2026-05-09 06:11 | -34.59333 | -56.08974 | 6812 ft | 212 kts | 43° |
| 2026-05-09 06:12 | -34.58378 | -56.07606 | 6811 ft | 212 kts | 43° |
| 2026-05-09 06:12 | -34.57423 | -56.06238 | 6814 ft | 213 kts | 43° |
| 2026-05-09 06:12 | -34.56467 | -56.04871 | 6813 ft | 212 kts | 43° |
| 2026-05-09 06:12 | -34.55510 | -56.03504 | 6816 ft | 213 kts | 43° |
| 2026-05-09 06:13 | -34.54790 | -56.01920 | 6811 ft | 221 kts | 76° |
| 2026-05-09 06:13 | -34.54919 | -56.00114 | 6816 ft | 218 kts | 117° |
| 2026-05-09 06:13 | -34.55838 | -55.98765 | 6813 ft | 202 kts | 157° |
| 2026-05-09 06:13 | -34.57095 | -55.98227 | 6820 ft | 184 kts | 186° |
| 2026-05-09 06:14 | -34.58300 | -55.98424 | 6827 ft | 169 kts | 211° |
| 2026-05-09 06:14 | -34.59293 | -55.99107 | 6826 ft | 163 kts | 222° |
| 2026-05-09 06:14 | -34.60280 | -55.99811 | 6823 ft | 165 kts | 218° |
| 2026-05-09 06:14 | -34.61290 | -56.00480 | 6822 ft | 165 kts | 218° |
| 2026-05-09 06:15 | -34.62294 | -56.01155 | 6821 ft | 165 kts | 219° |
| 2026-05-09 06:15 | -34.63284 | -56.01826 | 6822 ft | 165 kts | 219° |
| 2026-05-09 06:15 | -34.64287 | -56.02503 | 6814 ft | 165 kts | 218° |
| 2026-05-09 06:15 | -34.65290 | -56.03179 | 6813 ft | 165 kts | 218° |
| 2026-05-09 06:16 | -34.66293 | -56.03858 | 6815 ft | 165 kts | 218° |
| 2026-05-09 06:16 | -34.67426 | -56.04249 | 6815 ft | 180 kts | 192° |
| 2026-05-09 06:16 | -34.68693 | -56.04155 | 6811 ft | 184 kts | 186° |
| 2026-05-09 06:16 | -34.69967 | -56.04048 | 6807 ft | 184 kts | 187° |
| 2026-05-09 06:17 | -34.71246 | -56.03942 | 6477 ft | 174 kts | 187° |
| 2026-05-09 06:17 | -34.72334 | -56.03822 | 6082 ft | 146 kts | 189° |
| 2026-05-09 06:17 | -34.73285 | -56.03640 | 5599 ft | 138 kts | 180° |
| 2026-05-09 06:17 | -34.74211 | -56.03283 | 4983 ft | 143 kts | 178° |
| 2026-05-09 06:18 | -34.75173 | -56.02941 | 4425 ft | 144 kts | 182° |
| 2026-05-09 06:18 | -34.76116 | -56.02690 | 4076 ft | 132 kts | 184° |
| 2026-05-09 06:18 | -34.76995 | -56.02510 | 3698 ft | 121 kts | 192° |
| 2026-05-09 06:18 | -34.77810 | -56.02446 | 3369 ft | 115 kts | 198° |
| 2026-05-09 06:19 | -34.78564 | -56.02568 | 3016 ft | 111 kts | 209° |
| 2026-05-09 06:19 | -34.79378 | -56.02794 | 2253 ft | 134 kts | 210° |
| 2026-05-09 06:19 | -34.80321 | -56.03050 | 1530 ft | 150 kts | 198° |
| 2026-05-09 06:19 | -34.81397 | -56.03128 | 552 ft | 152 kts | 191° |
| 2026-05-09 06:20 | -34.82376 | -56.03108 | 108 ft | 132 kts | 180° |
| 2026-05-09 06:20 | -34.83147 | -56.03074 | 61 ft | 92 kts | 187° |
| 2026-05-09 06:20 | -34.83674 | -56.03077 | 64 ft | 57 kts | 181° |
| 2026-05-09 06:20 | -34.83932 | -56.03047 | 66 ft | 26 kts | 153° |
| 2026-05-09 06:21 | -34.84014 | -56.02885 | 67 ft | 22 kts | 84° |
| 2026-05-09 06:21 | -34.84031 | -56.02807 | 64 ft | 6 kts | 150° |
| 2026-05-09 06:21 | -34.84048 | -56.02786 | 64 ft | 0 kts | 136° |
| 2026-05-09 06:21 | -34.84049 | -56.02786 | 64 ft | 0 kts | 138° |
| 2026-05-09 06:22 | -34.84051 | -56.02784 | 65 ft | 1 kts | 146° |
| 2026-05-09 06:22 | -34.84052 | -56.02783 | 66 ft | 0 kts | 146° |
| 2026-05-09 06:22 | -34.84051 | -56.02746 | 68 ft | 7 kts | 73° |
| 2026-05-09 06:22 | -34.84050 | -56.02726 | 68 ft | 0 kts | 31° |